createdAt,value
2022-08-11T00:01:26.531Z,4.40
2022-08-11T00:06:35.684Z,4.50
2022-08-11T00:11:39.840Z,4.70
2022-08-11T00:16:42.307Z,4.60
2022-08-11T00:22:03.838Z,4.50
2022-08-11T00:27:06.036Z,4.50
2022-08-11T00:32:13.912Z,4.70
2022-08-11T00:37:19.827Z,3.70
2022-08-11T00:42:24.679Z,4.50
2022-08-11T00:47:32.297Z,4.60
2022-08-11T00:52:53.027Z,4.20
2022-08-11T00:58:06.859Z,4.80
2022-08-11T01:03:31.083Z,4.20
2022-08-11T01:08:52.106Z,4.40
2022-08-11T01:14:33.739Z,4.40
2022-08-11T01:20:44.576Z,4.50
2022-08-11T01:25:17.110Z,4.40
2022-08-11T01:30:39.395Z,4.80
2022-08-11T01:35:41.959Z,5.10
2022-08-11T01:40:49.884Z,5.40
2022-08-11T01:46:01.896Z,5.20
2022-08-11T01:51:17.324Z,5.20
2022-08-11T01:56:22.405Z,5.70
2022-08-11T02:01:32.628Z,6.00
2022-08-11T02:06:56.008Z,5.40
2022-08-11T02:12:00.247Z,6.90
2022-08-11T02:17:21.504Z,6.40
2022-08-11T02:22:42.095Z,6.40
2022-08-11T02:27:53.293Z,6.60
2022-08-11T02:33:23.321Z,6.80
2022-08-11T02:38:34.469Z,6.60
2022-08-11T02:43:55.053Z,5.70
2022-08-11T02:49:18.767Z,6.00
2022-08-11T02:54:26.665Z,6.20
2022-08-11T02:59:50.762Z,6.30
2022-08-11T03:04:59.320Z,6.00
2022-08-11T03:10:10.087Z,6.70
2022-08-11T03:15:32.346Z,4.80
2022-08-11T03:20:46.924Z,5.20
2022-08-11T03:25:48.597Z,6.10
2022-08-11T03:30:57.128Z,5.60
2022-08-11T03:36:01.907Z,5.30
2022-08-11T03:42:01.378Z,7.00
2022-08-11T03:47:02.674Z,5.60
2022-08-11T03:52:04.660Z,6.40
2022-08-11T03:57:14.425Z,6.40
2022-08-11T04:02:35.466Z,6.70
2022-08-11T04:07:40.670Z,5.70
2022-08-11T04:13:05.940Z,5.00
2022-08-11T04:18:19.902Z,5.60
2022-08-11T04:24:13.005Z,5.70
2022-08-11T04:29:12.039Z,5.70
2022-08-11T04:34:32.459Z,6.80
2022-08-11T04:39:43.649Z,6.80
2022-08-11T04:44:45.492Z,6.70
2022-08-11T04:50:24.861Z,18.50
2022-08-11T04:56:04.407Z,14.20
2022-08-11T05:01:43.360Z,12.80
2022-08-11T05:06:54.249Z,7.40
2022-08-11T05:12:01.961Z,7.70
2022-08-11T05:17:30.596Z,6.00
2022-08-11T05:22:51.250Z,6.40
2022-08-11T05:28:14.598Z,7.30
2022-08-11T05:33:42.168Z,8.20
2022-08-11T05:39:09.454Z,6.60
2022-08-11T05:44:36.619Z,6.00
2022-08-11T05:49:59.274Z,6.00
2022-08-11T05:55:24.086Z,6.80
2022-08-11T06:00:26.380Z,6.10
2022-08-11T06:05:37.228Z,5.80
2022-08-11T06:16:35.391Z,6.60
2022-08-11T06:21:38.337Z,6.60
2022-08-11T06:27:09.046Z,6.40
2022-08-11T06:32:13.511Z,6.20
2022-08-11T06:37:36.252Z,7.40
2022-08-11T06:42:38.725Z,6.00
2022-08-11T06:47:47.196Z,6.40
2022-08-11T06:52:49.420Z,5.20
2022-08-11T06:58:10.004Z,5.60
2022-08-11T07:03:12.969Z,4.50
2022-08-11T07:08:36.297Z,4.80
2022-08-11T07:13:57.096Z,5.60
2022-08-11T07:25:01.502Z,4.50
2022-08-11T07:30:04.392Z,3.60
2022-08-11T07:35:13.777Z,3.50
2022-08-11T07:40:20.039Z,3.50
2022-08-11T07:45:41.442Z,3.60
2022-08-11T07:51:02.584Z,3.40
2022-08-11T07:56:06.397Z,4.20
2022-08-11T08:01:27.101Z,3.50
2022-08-11T08:06:48.419Z,2.80
2022-08-11T08:12:08.558Z,2.70
2022-08-11T08:17:28.895Z,3.30
2022-08-11T08:22:48.570Z,3.00
2022-08-11T08:27:51.509Z,2.90
2022-08-11T08:32:53.804Z,2.10
2022-08-11T08:37:56.418Z,2.40
2022-08-11T08:43:01.660Z,2.40
2022-08-11T08:48:08.943Z,2.20
2022-08-11T08:53:10.740Z,2.50
2022-08-11T08:58:13.132Z,2.60
2022-08-11T09:03:40.008Z,2.60
2022-08-11T09:08:37.296Z,3.20
2022-08-11T09:13:42.349Z,2.50
2022-08-11T09:18:46.981Z,3.00
2022-08-11T09:24:19.317Z,2.60
2022-08-11T09:29:28.210Z,2.60
2022-08-11T09:34:30.222Z,1.60
2022-08-11T09:39:55.150Z,1.40
2022-08-11T09:44:57.809Z,1.50
2022-08-11T09:50:01.193Z,1.60
2022-08-11T09:55:11.325Z,1.30
2022-08-11T10:00:15.266Z,0.80
2022-08-11T10:05:39.748Z,1.00
2022-08-11T10:10:42.023Z,1.70
2022-08-11T10:16:14.774Z,1.50
2022-08-11T10:21:14.343Z,1.40
2022-08-11T10:26:37.326Z,1.50
2022-08-11T10:32:04.283Z,1.80
2022-08-11T10:37:06.887Z,1.40
2022-08-11T10:42:57.555Z,1.00
2022-08-11T10:47:58.800Z,0.90
2022-08-11T10:53:20.360Z,1.20
2022-08-11T10:58:44.835Z,0.90
2022-08-11T11:03:46.917Z,1.20
2022-08-11T11:08:57.783Z,1.50
2022-08-11T11:14:20.598Z,1.00
2022-08-11T11:19:30.163Z,0.90
2022-08-11T11:24:40.178Z,0.70
2022-08-11T11:29:41.986Z,1.00
2022-08-11T11:34:57.380Z,1.10
2022-08-11T11:39:59.975Z,1.00
2022-08-11T11:45:02.883Z,1.10
2022-08-11T11:50:08.617Z,0.80
2022-08-11T11:55:10.628Z,1.10
2022-08-11T12:00:33.447Z,1.30
2022-08-11T12:05:36.513Z,1.60
2022-08-11T12:10:39.625Z,1.50
2022-08-11T12:16:32.017Z,1.10
2022-08-11T12:21:05.497Z,1.20
2022-08-11T12:26:27.665Z,1.10
2022-08-11T12:31:30.459Z,0.90
2022-08-11T12:36:35.239Z,1.30
2022-08-11T12:41:56.885Z,0.70
2022-08-11T12:47:02.417Z,1.00
2022-08-11T12:52:14.112Z,1.00
2022-08-11T12:57:42.146Z,0.80
2022-08-11T13:03:03.553Z,0.70
2022-08-11T13:08:07.100Z,0.90
2022-08-11T13:13:55.177Z,0.60
2022-08-11T13:18:32.129Z,1.00
2022-08-11T13:23:34.520Z,2.00
2022-08-11T13:28:37.117Z,1.30
2022-08-11T13:33:41.559Z,1.10
2022-08-11T13:38:49.878Z,1.10
2022-08-11T13:43:52.844Z,0.50
2022-08-11T13:49:00.557Z,0.60
2022-08-11T13:54:05.047Z,2.40
2022-08-11T13:59:08.469Z,0.60
2022-08-11T14:04:30.671Z,0.60
2022-08-11T14:09:38.339Z,1.60
2022-08-11T14:14:41.777Z,0.80
2022-08-11T14:19:44.895Z,1.10
2022-08-11T14:24:49.736Z,0.70
2022-08-11T14:29:51.620Z,0.70
2022-08-11T14:34:53.705Z,1.80
2022-08-11T14:40:03.309Z,1.80
2022-08-11T14:45:57.641Z,2.10
2022-08-11T14:50:56.046Z,1.60
2022-08-11T14:56:16.700Z,1.20
2022-08-11T15:06:39.118Z,1.20
2022-08-11T15:11:59.989Z,1.20
2022-08-11T15:17:08.315Z,1.80
2022-08-11T15:22:29.126Z,2.00
2022-08-11T15:28:00.819Z,1.40
2022-08-11T15:33:25.869Z,1.20
2022-08-11T15:38:29.147Z,1.00
2022-08-11T15:44:08.410Z,1.30
2022-08-11T15:49:21.753Z,40.30
2022-08-11T15:54:26.716Z,6.10
2022-08-11T15:59:49.890Z,2.20
2022-08-11T16:04:52.789Z,2.60
2022-08-11T16:10:00.252Z,2.30
2022-08-11T16:15:22.815Z,1.30
2022-08-11T16:20:26.417Z,1.70
2022-08-11T16:26:30.389Z,2.10
2022-08-11T16:30:51.165Z,1.80
2022-08-11T16:36:13.097Z,1.60
2022-08-11T16:41:37.277Z,1.70
2022-08-11T16:46:58.144Z,1.70
2022-08-11T16:52:04.300Z,1.20
2022-08-11T16:57:26.151Z,1.40
2022-08-11T17:02:49.835Z,1.50
2022-08-11T17:08:10.661Z,1.30
2022-08-11T17:13:16.051Z,1.10
2022-08-11T17:18:38.576Z,1.40
2022-08-11T17:23:47.437Z,1.80
2022-08-11T17:28:51.765Z,1.30
2022-08-11T17:34:13.739Z,1.80
2022-08-11T17:39:16.268Z,1.40
2022-08-11T17:44:36.931Z,1.70
2022-08-11T17:49:39.634Z,2.00
2022-08-11T17:55:00.664Z,1.60
2022-08-11T18:00:04.506Z,2.20
2022-08-11T18:05:15.990Z,3.20
2022-08-11T18:10:40.157Z,4.30
2022-08-11T18:16:03.066Z,5.70
2022-08-11T18:21:25.079Z,8.50
2022-08-11T18:32:07.483Z,9.20
2022-08-11T18:37:34.449Z,7.90
2022-08-11T18:42:58.143Z,7.70
2022-08-11T18:48:22.247Z,8.60
2022-08-11T18:53:48.597Z,7.30
2022-08-11T18:59:16.802Z,7.30
2022-08-11T19:04:38.844Z,6.80
2022-08-11T19:10:01.004Z,5.30
2022-08-11T19:15:22.033Z,5.40
2022-08-11T19:20:44.188Z,5.70
2022-08-11T19:26:05.526Z,6.00
2022-08-11T19:31:27.575Z,5.80
2022-08-11T19:36:49.319Z,5.90
2022-08-11T19:42:10.556Z,5.90
2022-08-11T19:47:31.629Z,6.50
2022-08-11T19:52:53.412Z,6.70
2022-08-11T19:58:13.901Z,6.50
2022-08-11T20:03:35.080Z,6.60
2022-08-11T20:14:20.104Z,8.10
2022-08-11T20:19:56.134Z,7.50
2022-08-11T20:25:17.522Z,7.60
2022-08-11T20:30:38.140Z,8.50
2022-08-11T20:35:58.869Z,6.70
2022-08-11T20:41:20.101Z,7.00
2022-08-11T20:46:42.402Z,8.50
2022-08-11T20:52:06.232Z,7.80
2022-08-11T20:57:50.474Z,8.50
2022-08-11T21:03:10.531Z,7.80
2022-08-11T21:08:33.401Z,7.60
2022-08-11T21:13:56.984Z,9.50
2022-08-11T21:20:01.780Z,8.50
2022-08-11T21:25:21.134Z,8.00
2022-08-11T21:30:42.062Z,8.50
2022-08-11T21:36:02.295Z,8.60
2022-08-11T21:41:24.552Z,9.60
2022-08-11T21:46:45.720Z,9.70
2022-08-11T21:57:27.513Z,10.80
2022-08-11T22:02:52.247Z,14.30
2022-08-11T22:08:14.408Z,14.20
2022-08-11T22:13:34.618Z,29.50
2022-08-11T22:18:55.623Z,18.80
2022-08-11T22:24:18.376Z,17.80
2022-08-11T22:29:51.501Z,11.10
2022-08-11T22:40:33.154Z,10.20
2022-08-11T22:51:14.500Z,10.20
2022-08-11T22:56:35.746Z,10.40
2022-08-11T23:01:57.535Z,11.30
2022-08-11T23:07:50.797Z,11.30
2022-08-11T23:13:01.339Z,10.50
2022-08-11T23:18:22.674Z,11.20
2022-08-11T23:23:43.806Z,10.00
2022-08-11T23:29:06.190Z,9.20
2022-08-11T23:34:41.598Z,11.20
2022-08-11T23:40:11.786Z,11.20
2022-08-11T23:45:32.292Z,11.60
2022-08-11T23:50:52.732Z,9.80
2022-08-11T23:56:13.451Z,9.70
